Preview of NWS' New Version of Forecast
This preview is not operational and should not be used for support decisions.

Terminal Aerodrome Forecast (TAF)

Issued by National Weather Service (NWS)

                            
803 
FTUS42 KMFL 272332
TAFMIA
TAF
KMIA 272332Z 2800/2906 17017G27KT P6SM SHRA BKN020 BKN050
     FM280200 16011KT P6SM SHRA SCT020 BKN035 OVC045
     FM281400 17014G24KT P6SM SHRA SCT015 BKN035
     FM281700 20018G28KT P6SM SHRA VCTS SCT015CB BKN035
     FM290000 16012KT P6SM VCSH SCT020 BKN040=